createdAt,value
2019-05-15T00:02:35.558Z,9.13
2019-05-15T00:05:40.447Z,9.07
2019-05-15T00:08:47.887Z,8.97
2019-05-15T00:11:51.984Z,8.92
2019-05-15T00:14:58.101Z,8.87
2019-05-15T00:18:02.912Z,8.82
2019-05-15T00:21:09.301Z,8.65
2019-05-15T00:24:14.295Z,8.69
2019-05-15T00:27:20.237Z,8.61
2019-05-15T00:30:25.148Z,8.49
2019-05-15T00:33:30.262Z,8.43
2019-05-15T00:36:35.010Z,8.42
2019-05-15T00:39:40.026Z,8.29
2019-05-15T00:42:45.003Z,8.18
2019-05-15T00:45:49.763Z,8.29
2019-05-15T00:48:54.830Z,8.39
2019-05-15T00:51:59.996Z,8.46
2019-05-15T00:55:05.229Z,8.61
2019-05-15T00:58:09.985Z,8.59
2019-05-15T01:01:14.782Z,8.63
2019-05-15T01:04:19.878Z,8.66
2019-05-15T01:07:24.611Z,8.62
2019-05-15T01:10:29.393Z,8.68
2019-05-15T01:13:35.119Z,8.74
2019-05-15T01:16:40.192Z,8.68
2019-05-15T01:19:45.279Z,8.62
2019-05-15T01:22:50.338Z,8.71
2019-05-15T01:25:55.407Z,8.64
2019-05-15T01:29:00.582Z,8.63
2019-05-15T01:32:05.460Z,8.57
2019-05-15T01:35:10.620Z,8.58
2019-05-15T01:38:15.462Z,8.56
2019-05-15T01:41:20.547Z,8.63
2019-05-15T01:44:25.589Z,8.60
2019-05-15T01:47:30.689Z,8.64
2019-05-15T01:50:38.409Z,8.66
2019-05-15T01:53:42.950Z,8.63
2019-05-15T01:56:49.513Z,8.51
2019-05-15T01:59:58.316Z,8.50
2019-05-15T02:03:01.645Z,8.52
2019-05-15T02:06:08.252Z,8.45
2019-05-15T02:09:13.296Z,8.37
2019-05-15T02:12:19.159Z,8.21
2019-05-15T02:15:24.237Z,8.17
2019-05-15T02:18:29.252Z,8.24
2019-05-15T02:21:34.006Z,8.36
2019-05-15T02:24:39.220Z,8.35
2019-05-15T02:27:44.262Z,8.36
2019-05-15T02:30:50.381Z,8.16
2019-05-15T02:33:58.793Z,7.94
2019-05-15T02:37:02.709Z,7.86
2019-05-15T02:40:09.926Z,7.92
2019-05-15T02:43:14.614Z,7.86
2019-05-15T02:46:19.957Z,7.88
2019-05-15T02:49:25.677Z,7.81
2019-05-15T02:52:30.751Z,7.70
2019-05-15T02:55:35.761Z,7.80
2019-05-15T02:58:41.864Z,7.74
2019-05-15T03:01:49.316Z,7.75
2019-05-15T03:04:53.697Z,7.90
2019-05-15T03:07:59.575Z,7.95
2019-05-15T03:11:04.830Z,7.86
2019-05-15T03:14:09.655Z,7.80
2019-05-15T03:17:15.106Z,7.81
2019-05-15T03:20:20.139Z,7.59
2019-05-15T03:23:25.079Z,7.63
2019-05-15T03:26:30.136Z,7.58
2019-05-15T03:29:35.343Z,7.56
2019-05-15T03:32:52.465Z,7.46
2019-05-15T03:35:53.655Z,7.47
2019-05-15T03:38:54.191Z,7.43
2019-05-15T03:41:59.310Z,7.26
2019-05-15T03:45:04.552Z,7.22
2019-05-15T03:48:09.813Z,7.31
2019-05-15T03:51:14.967Z,7.18
2019-05-15T03:54:19.783Z,7.11
2019-05-15T03:57:24.544Z,6.99
2019-05-15T04:00:30.274Z,6.94
2019-05-15T04:03:38.808Z,7.01
2019-05-15T04:06:41.972Z,6.98
2019-05-15T04:09:49.338Z,7.00
2019-05-15T04:12:55.082Z,7.01
2019-05-15T04:16:00.538Z,7.05
2019-05-15T04:19:05.286Z,7.04
2019-05-15T04:22:10.099Z,6.96
2019-05-15T04:25:14.903Z,7.03
2019-05-15T04:28:21.233Z,6.99
2019-05-15T04:31:25.962Z,6.83
2019-05-15T04:34:31.099Z,7.00
2019-05-15T04:37:36.234Z,7.03
2019-05-15T04:40:41.657Z,7.34
2019-05-15T04:43:49.396Z,7.31
2019-05-15T04:46:53.649Z,7.19
2019-05-15T04:49:59.169Z,6.97
2019-05-15T04:53:04.170Z,6.89
2019-05-15T04:56:09.793Z,6.81
2019-05-15T04:59:14.980Z,7.00
2019-05-15T05:02:26.695Z,7.09
2019-05-15T05:05:29.309Z,7.16
2019-05-15T05:08:33.602Z,7.36
2019-05-15T05:11:39.317Z,7.52
2019-05-15T05:14:44.465Z,7.61
2019-05-15T05:17:49.627Z,7.79
2019-05-15T05:20:57.689Z,8.04
2019-05-15T05:24:01.324Z,8.28
2019-05-15T05:27:08.680Z,8.30
2019-05-15T05:30:13.389Z,8.48
2019-05-15T05:33:18.679Z,8.65
2019-05-15T05:36:23.649Z,8.83
2019-05-15T05:39:30.266Z,9.04
2019-05-15T05:42:35.365Z,9.12
2019-05-15T05:45:40.458Z,9.12
2019-05-15T05:48:45.281Z,9.16
2019-05-15T05:51:50.135Z,9.35
2019-05-15T05:54:54.953Z,9.73
2019-05-15T05:58:00.159Z,9.87
2019-05-15T06:01:05.074Z,9.89
2019-05-15T06:04:09.892Z,10.04
2019-05-15T06:07:14.743Z,10.25
2019-05-15T06:10:19.724Z,10.39
2019-05-15T06:13:24.554Z,10.42
2019-05-15T06:16:29.314Z,10.53
2019-05-15T06:19:34.375Z,10.41
2019-05-15T06:22:39.170Z,10.43
2019-05-15T06:25:44.285Z,10.58
2019-05-15T06:28:49.363Z,10.76
2019-05-15T06:31:55.136Z,10.87
2019-05-15T06:35:00.257Z,10.94
2019-05-15T06:38:05.078Z,11.06
2019-05-15T06:41:10.221Z,11.23
2019-05-15T06:44:15.330Z,11.27
2019-05-15T06:47:20.521Z,11.36
2019-05-15T06:50:38.290Z,11.30
2019-05-15T06:53:43.286Z,11.30
2019-05-15T06:56:49.278Z,11.12
2019-05-15T06:59:54.261Z,11.30
2019-05-15T07:02:59.469Z,11.45
2019-05-15T07:06:04.304Z,11.39
2019-05-15T07:09:09.640Z,11.33
2019-05-15T07:12:14.721Z,11.63
2019-05-15T07:15:19.929Z,11.73
2019-05-15T07:18:24.712Z,11.66
2019-05-15T07:21:29.821Z,11.87
2019-05-15T07:24:38.343Z,11.81
2019-05-15T07:27:43.523Z,12.12
2019-05-15T07:32:09.455Z,12.24
2019-05-15T07:35:14.920Z,12.49
2019-05-15T07:38:19.764Z,12.36
2019-05-15T07:41:24.731Z,12.26
2019-05-15T07:44:30.777Z,12.44
2019-05-15T07:47:38.319Z,12.53
2019-05-15T07:50:54.157Z,12.73
2019-05-15T07:54:09.147Z,12.66
2019-05-15T07:57:13.325Z,12.69
2019-05-15T08:00:19.288Z,12.46
2019-05-15T08:03:24.097Z,12.49
2019-05-15T08:06:29.202Z,12.58
2019-05-15T08:09:34.415Z,12.30
2019-05-15T08:12:44.889Z,12.39
2019-05-15T08:15:50.563Z,12.20
2019-05-15T08:18:57.855Z,12.31
2019-05-15T08:22:02.817Z,12.38
2019-05-15T08:25:30.082Z,12.61
2019-05-15T08:28:28.303Z,12.98
2019-05-15T08:31:39.008Z,12.98
2019-05-15T08:34:44.432Z,12.79
2019-05-15T08:37:58.101Z,12.60
2019-05-15T08:41:02.776Z,12.78
2019-05-15T08:47:24.911Z,12.63
2019-05-15T08:50:43.876Z,13.28
2019-05-15T08:53:52.976Z,14.04
2019-05-15T08:56:59.727Z,14.20
2019-05-15T09:00:09.881Z,13.67
2019-05-15T09:03:18.322Z,13.57
2019-05-15T09:06:33.492Z,13.48
2019-05-15T09:09:39.444Z,13.99
2019-05-15T09:12:46.616Z,14.25
2019-05-15T09:16:08.266Z,14.44
2019-05-15T09:19:14.429Z,14.74
2019-05-15T09:22:21.649Z,14.76
2019-05-15T09:25:28.994Z,14.02
2019-05-15T09:28:34.442Z,13.77
2019-05-15T09:31:40.242Z,13.79
2019-05-15T09:34:51.799Z,14.60
2019-05-15T09:37:52.057Z,14.89
2019-05-15T09:40:59.506Z,14.93
2019-05-15T09:44:10.294Z,14.73
2019-05-15T09:47:20.582Z,14.61
2019-05-15T09:50:28.089Z,14.60
2019-05-15T09:53:32.795Z,14.58
2019-05-15T09:56:38.570Z,14.67
2019-05-15T09:59:45.448Z,14.72
2019-05-15T10:03:01.648Z,15.02
2019-05-15T10:06:15.260Z,15.54
2019-05-15T10:09:22.552Z,15.80
2019-05-15T10:12:35.137Z,15.29
2019-05-15T10:15:58.789Z,15.15
2019-05-15T10:19:08.969Z,15.73
2019-05-15T10:22:14.505Z,15.92
2019-05-15T10:25:28.034Z,15.96
2019-05-15T10:28:51.434Z,15.83
2019-05-15T10:31:56.416Z,16.15
2019-05-15T10:35:02.262Z,16.26
2019-05-15T10:38:15.047Z,16.39
2019-05-15T10:42:08.219Z,16.42
2019-05-15T10:45:13.991Z,16.62
2019-05-15T10:48:38.626Z,16.70
2019-05-15T11:11:14.264Z,17.37
2019-05-15T11:14:32.222Z,17.21
2019-05-15T11:18:00.663Z,17.16
2019-05-15T11:21:09.560Z,17.24
2019-05-15T11:24:23.280Z,17.24
2019-05-15T11:31:14.995Z,16.62
2019-05-15T11:41:50.216Z,17.67
2019-05-15T11:45:00.857Z,17.54
2019-05-15T11:52:01.263Z,17.17
2019-05-15T11:55:15.509Z,17.59
2019-05-15T11:58:23.060Z,17.91
2019-05-15T12:01:38.474Z,18.01
2019-05-15T12:04:44.054Z,18.01
2019-05-15T12:07:49.671Z,18.15
2019-05-15T12:10:55.111Z,18.23
2019-05-15T12:17:43.100Z,18.37
2019-05-15T12:21:05.483Z,18.38
2019-05-15T12:24:15.882Z,18.38
2019-05-15T12:27:32.479Z,18.55
2019-05-15T12:31:04.635Z,18.64
2019-05-15T12:34:10.664Z,18.53
2019-05-15T12:37:19.303Z,18.45
2019-05-15T12:59:46.859Z,17.79
2019-05-15T13:02:51.598Z,18.22
2019-05-15T13:05:56.673Z,18.47
2019-05-15T13:09:01.485Z,18.63
2019-05-15T13:12:08.545Z,18.63
2019-05-15T13:15:13.559Z,19.03
2019-05-15T13:18:18.726Z,19.25
2019-05-15T13:21:23.767Z,18.80
2019-05-15T13:24:28.889Z,19.23
2019-05-15T13:27:33.647Z,19.08
2019-05-15T13:30:41.566Z,19.05
2019-05-15T13:33:47.982Z,19.33
2019-05-15T13:36:52.327Z,19.46
2019-05-15T13:39:58.713Z,19.30
2019-05-15T13:43:04.876Z,19.44
2019-05-15T13:46:09.804Z,19.44
2019-05-15T13:49:14.888Z,19.49
2019-05-15T13:52:19.659Z,19.97
2019-05-15T13:55:26.285Z,19.71
2019-05-15T13:58:31.569Z,19.65
2019-05-15T14:01:39.101Z,19.54
2019-05-15T14:04:43.208Z,19.77
2019-05-15T14:07:53.177Z,19.76
2019-05-15T14:10:55.608Z,19.81
2019-05-15T14:14:00.463Z,20.03
2019-05-15T14:17:05.326Z,20.01
2019-05-15T14:20:10.663Z,20.25
2019-05-15T14:23:18.445Z,20.47
2019-05-15T14:26:23.966Z,20.42
2019-05-15T14:29:30.211Z,20.35
2019-05-15T14:32:38.891Z,20.21
2019-05-15T14:35:41.956Z,20.17
2019-05-15T14:38:48.485Z,20.20
2019-05-15T14:41:53.955Z,20.08
2019-05-15T14:44:59.407Z,20.21
2019-05-15T14:48:04.535Z,20.62
2019-05-15T14:51:09.574Z,20.26
2019-05-15T14:54:14.362Z,20.25
2019-05-15T14:57:20.204Z,20.37
2019-05-15T15:00:28.986Z,20.50
2019-05-15T15:03:31.965Z,20.51
2019-05-15T15:06:36.803Z,19.53
2019-05-15T15:09:41.581Z,20.25
2019-05-15T15:12:46.340Z,20.78
2019-05-15T15:15:51.110Z,21.13
2019-05-15T15:18:58.404Z,20.60
2019-05-15T15:22:02.716Z,20.20
2019-05-15T15:25:09.500Z,20.51
2019-05-15T15:28:14.851Z,20.45
2019-05-15T15:31:20.145Z,20.61
2019-05-15T15:34:24.883Z,20.26
2019-05-15T15:37:29.665Z,20.29
2019-05-15T15:40:34.610Z,20.73
2019-05-15T15:43:39.870Z,20.68
2019-05-15T15:46:44.667Z,20.80
2019-05-15T15:49:49.497Z,20.10
2019-05-15T15:52:55.158Z,19.50
2019-05-15T15:56:01.212Z,19.22
2019-05-15T15:59:08.596Z,19.09
2019-05-15T16:02:12.906Z,18.61
2019-05-15T16:05:19.026Z,18.46
2019-05-15T16:08:24.622Z,18.43
2019-05-15T16:11:29.637Z,18.48
2019-05-15T16:14:34.502Z,18.64
2019-05-15T16:17:39.241Z,18.78
2019-05-15T16:20:44.072Z,18.72
2019-05-15T16:23:49.106Z,18.57
2019-05-15T16:26:53.864Z,18.40
2019-05-15T16:29:58.894Z,18.57
2019-05-15T16:33:04.006Z,18.54
2019-05-15T16:36:08.953Z,18.06
2019-05-15T16:39:14.082Z,18.05
2019-05-15T16:42:18.913Z,18.20
2019-05-15T16:45:23.858Z,18.10
2019-05-15T16:48:29.487Z,17.79
2019-05-15T16:51:34.655Z,17.75
2019-05-15T16:54:39.515Z,18.00
2019-05-15T16:57:44.346Z,17.93
2019-05-15T17:00:49.799Z,18.05
2019-05-15T17:03:55.107Z,17.99
2019-05-15T17:06:59.913Z,17.70
2019-05-15T17:10:05.075Z,17.89
2019-05-15T17:13:10.048Z,18.13
2019-05-15T17:16:14.956Z,18.41
2019-05-15T17:19:19.815Z,18.39
2019-05-15T17:22:24.643Z,17.92
2019-05-15T17:25:29.887Z,17.92
2019-05-15T17:28:35.115Z,17.44
2019-05-15T17:31:40.563Z,17.30
2019-05-15T17:34:45.445Z,17.40
2019-05-15T17:37:50.883Z,17.17
2019-05-15T17:40:57.714Z,17.25
2019-05-15T17:44:02.155Z,17.02
2019-05-15T17:47:09.690Z,16.89
2019-05-15T17:50:14.019Z,16.73
2019-05-15T17:53:18.756Z,16.56
2019-05-15T17:56:23.786Z,16.35
2019-05-15T17:59:28.978Z,16.24
2019-05-15T18:02:33.828Z,16.16
2019-05-15T18:05:39.324Z,15.99
2019-05-15T18:08:44.166Z,15.90
2019-05-15T18:11:49.430Z,15.90
2019-05-15T18:14:54.723Z,15.73
2019-05-15T18:18:00.119Z,15.63
2019-05-15T18:21:05.543Z,15.61
2019-05-15T18:24:10.664Z,15.64
2019-05-15T18:27:18.354Z,15.54
2019-05-15T18:30:22.754Z,15.44
2019-05-15T18:33:28.789Z,15.42
2019-05-15T18:36:34.548Z,15.30
2019-05-15T18:39:39.635Z,15.18
2019-05-15T18:42:45.818Z,15.00
2019-05-15T18:45:50.687Z,14.98
2019-05-15T18:48:57.580Z,14.96
2019-05-15T18:52:02.104Z,14.83
2019-05-15T18:55:08.195Z,14.94
2019-05-15T18:58:14.011Z,14.89
2019-05-15T19:01:20.923Z,14.74
2019-05-15T19:04:25.963Z,14.50
2019-05-15T19:07:30.749Z,14.46
2019-05-15T19:10:38.411Z,14.37
2019-05-15T19:13:43.194Z,14.15
2019-05-15T19:16:48.585Z,14.07
2019-05-15T19:19:53.771Z,13.94
2019-05-15T19:22:59.096Z,13.81
2019-05-15T19:26:04.094Z,13.44
2019-05-15T19:29:09.201Z,13.35
2019-05-15T19:32:14.438Z,13.31
2019-05-15T19:35:19.664Z,13.40
2019-05-15T19:38:27.816Z,13.45
2019-05-15T19:41:32.283Z,13.22
2019-05-15T19:44:37.801Z,13.28
2019-05-15T19:47:42.693Z,13.33
2019-05-15T19:50:48.211Z,13.08
2019-05-15T19:53:53.370Z,12.74
2019-05-15T19:56:58.633Z,12.79
2019-05-15T20:00:03.976Z,12.73
2019-05-15T20:03:10.479Z,12.72
2019-05-15T20:06:15.461Z,12.65
2019-05-15T20:09:20.586Z,12.48
2019-05-15T20:12:27.775Z,12.48
2019-05-15T20:15:32.155Z,12.45
2019-05-15T20:18:38.594Z,12.35
2019-05-15T20:21:44.440Z,12.32
2019-05-15T20:24:49.710Z,12.14
2019-05-15T20:27:55.071Z,12.12
2019-05-15T20:31:01.655Z,12.16
2019-05-15T20:34:09.205Z,12.10
2019-05-15T20:37:13.641Z,12.07
2019-05-15T20:40:18.619Z,12.17
2019-05-15T20:43:23.806Z,12.15
2019-05-15T20:46:29.062Z,11.99
2019-05-15T20:49:35.029Z,12.06
2019-05-15T20:52:40.176Z,12.13
2019-05-15T20:55:45.349Z,12.10
2019-05-15T20:58:50.398Z,12.02
2019-05-15T21:01:55.200Z,11.94
2019-05-15T21:05:00.692Z,11.94
2019-05-15T21:08:06.167Z,12.04
2019-05-15T21:11:12.201Z,12.13
2019-05-15T21:14:17.296Z,11.87
2019-05-15T21:17:22.255Z,11.96
2019-05-15T21:20:28.798Z,12.10
2019-05-15T21:23:33.753Z,11.96
2019-05-15T21:26:38.574Z,11.87
2019-05-15T21:29:43.688Z,11.93
2019-05-15T21:32:49.374Z,11.86
2019-05-15T21:35:54.692Z,11.95
2019-05-15T21:38:59.873Z,12.14
2019-05-15T21:42:04.987Z,12.09
2019-05-15T21:45:14.546Z,11.97
2019-05-15T21:48:18.611Z,11.82
2019-05-15T21:51:23.726Z,11.83
2019-05-15T21:54:28.641Z,11.98
2019-05-15T21:57:36.704Z,12.05
2019-05-15T22:00:44.099Z,11.78
2019-05-15T22:03:49.428Z,11.89
2019-05-15T22:06:54.279Z,12.07
2019-05-15T22:09:59.024Z,12.13
2019-05-15T22:13:04.944Z,12.11
2019-05-15T22:16:10.820Z,12.19
2019-05-15T22:19:18.074Z,12.28
2019-05-15T22:22:23.314Z,12.24
2019-05-15T22:25:28.234Z,12.05
2019-05-15T22:28:33.822Z,11.94
2019-05-15T22:31:40.051Z,11.94
2019-05-15T22:34:45.258Z,11.95
2019-05-15T22:37:50.114Z,11.96
2019-05-15T22:40:55.210Z,11.67
2019-05-15T22:44:02.054Z,11.62
2019-05-15T22:47:06.902Z,11.53
2019-05-15T22:50:12.030Z,11.43
2019-05-15T22:53:17.792Z,11.46
2019-05-15T22:56:22.706Z,11.52
2019-05-15T22:59:28.372Z,11.59
2019-05-15T23:02:33.226Z,11.61
2019-05-15T23:05:38.142Z,11.53
2019-05-15T23:08:43.976Z,11.54
2019-05-15T23:11:48.810Z,11.55
2019-05-15T23:14:53.598Z,11.58
2019-05-15T23:17:58.724Z,11.53
2019-05-15T23:21:03.802Z,11.43
2019-05-15T23:24:08.676Z,11.44
2019-05-15T23:27:13.436Z,11.46
2019-05-15T23:30:21.544Z,11.45
2019-05-15T23:33:28.246Z,11.44
2019-05-15T23:36:34.117Z,11.44
2019-05-15T23:39:38.893Z,11.28
2019-05-15T23:42:48.866Z,11.05
2019-05-15T23:45:52.731Z,10.98
2019-05-15T23:48:58.813Z,10.89
2019-05-15T23:52:03.695Z,10.88
2019-05-15T23:55:09.181Z,10.89
2019-05-15T23:58:13.991Z,10.58
